Time;durP1;ratioP1;P1;durP2;ratioP2;P2;SDS_P1;SDS_P2;PMS_P1;PMS_P2;Temp;Humidity;BMP_temperature;BMP_pressure;BME280_temperature;BME280_humidity;BME280_pressure;Samples;Min_cycle;Max_cycle;Signal;HPM_P1;HPM_P2
2022/05/14 00:00:35;;;;;;;14.32;11.23;;;;;;;;;;4995466;28;20054;-69
2022/05/14 00:03:02;;;;;;;17.25;11.65;;;;;;;;;;4995255;28;20046;-69
2022/05/14 00:05:29;;;;;;;15.55;11.30;;;;;;;;;;4995898;28;20472;-70
2022/05/14 00:07:56;;;;;;;16.65;11.20;;;;;;;;;;4995648;28;20047;-70
2022/05/14 00:10:25;;;;;;;15.05;11.68;;;;;;;;;;4995513;28;20047;-70
2022/05/14 00:13:03;;;;;;;17.63;12.00;;;;;;;;;;4995148;28;20046;-70
2022/05/14 00:15:33;;;;;;;14.90;12.23;;;;;;;;;;4995123;28;20146;-70
2022/05/14 00:18:01;;;;;;;18.05;11.98;;;;;;;;;;4994852;28;20122;-69
2022/05/14 00:20:28;;;;;;;17.15;11.57;;;;;;;;;;4994758;28;20077;-69
2022/05/14 00:22:55;;;;;;;17.88;12.07;;;;;;;;;;4994851;28;20141;-70
2022/05/14 00:25:22;;;;;;;13.80;11.05;;;;;;;;;;4995233;28;20054;-69
2022/05/14 00:27:50;;;;;;;16.45;12.20;;;;;;;;;;4994464;28;20056;-70
2022/05/14 00:30:19;;;;;;;14.93;11.55;;;;;;;;;;4994749;28;20050;-69
2022/05/14 00:32:47;;;;;;;18.25;13.75;;;;;;;;;;4994554;28;20073;-70
2022/05/14 00:35:15;;;;;;;15.40;11.68;;;;;;;;;;4994584;28;20049;-69
2022/05/14 00:37:42;;;;;;;18.35;12.82;;;;;;;;;;4994679;28;20471;-69
2022/05/14 00:40:13;;;;;;;19.83;12.20;;;;;;;;;;4994854;28;20053;-70
2022/05/14 00:42:40;;;;;;;17.15;12.30;;;;;;;;;;4994458;28;20061;-70
2022/05/14 00:45:09;;;;;;;14.93;12.13;;;;;;;;;;4994534;28;20055;-70
2022/05/14 00:47:37;;;;;;;17.10;12.10;;;;;;;;;;4994406;28;20054;-70
2022/05/14 00:50:07;;;;;;;16.00;12.38;;;;;;;;;;4994558;28;20050;-70
2022/05/14 00:52:34;;;;;;;16.30;13.10;;;;;;;;;;4994847;28;20412;-70
2022/05/14 00:55:05;;;;;;;17.10;12.48;;;;;;;;;;4994726;28;20058;-70
2022/05/14 00:57:36;;;;;;;19.25;11.95;;;;;;;;;;4994226;28;20050;-70
2022/05/14 01:00:07;;;;;;;15.55;11.95;;;;;;;;;;4994068;28;20057;-70
2022/05/14 01:02:34;;;;;;;15.75;12.10;;;;;;;;;;4993817;28;20051;-70
2022/05/14 01:05:02;;;;;;;14.52;10.95;;;;;;;;;;4993997;28;20125;-69
2022/05/14 01:07:31;;;;;;;14.48;11.55;;;;;;;;;;4994118;28;20050;-70
2022/05/14 01:10:00;;;;;;;13.30;10.85;;;;;;;;;;4994163;28;20054;-67
2022/05/14 01:12:29;;;;;;;16.13;11.20;;;;;;;;;;4993552;28;20088;-67
2022/05/14 01:15:06;;;;;;;14.95;11.05;;;;;;;;;;4993533;28;20077;-67
2022/05/14 01:17:33;;;;;;;13.88;11.82;;;;;;;;;;4993731;28;20116;-67
2022/05/14 01:20:00;;;;;;;13.95;11.35;;;;;;;;;;4993947;28;20050;-67
2022/05/14 01:22:38;;;;;;;16.80;12.07;;;;;;;;;;4994020;28;20125;-67
2022/05/14 01:28:01;;;;;;;16.00;11.55;;;;;;;;;;4993551;28;20058;-67
2022/05/14 01:30:29;;;;;;;13.90;11.23;;;;;;;;;;4993486;28;20061;-67
2022/05/14 01:33:05;;;;;;;13.13;11.18;;;;;;;;;;4993491;28;20050;-68
2022/05/14 01:35:33;;;;;;;17.15;11.50;;;;;;;;;;4993171;28;20046;-66
2022/05/14 01:38:01;;;;;;;13.27;10.95;;;;;;;;;;4993642;28;20419;-68
2022/05/14 01:40:28;;;;;;;15.48;11.75;;;;;;;;;;4993241;28;20492;-66
2022/05/14 01:42:55;;;;;;;18.10;12.00;;;;;;;;;;4993381;28;20050;-66
2022/05/14 01:45:25;;;;;;;15.35;11.98;;;;;;;;;;4993092;28;20053;-67
2022/05/14 01:47:52;;;;;;;16.00;12.27;;;;;;;;;;4993969;28;20056;-68
2022/05/14 01:50:19;;;;;;;16.77;12.50;;;;;;;;;;4993020;28;20050;-67
2022/05/14 01:52:46;;;;;;;14.63;11.45;;;;;;;;;;4993319;28;20085;-67
2022/05/14 01:55:13;;;;;;;14.93;11.95;;;;;;;;;;4993317;28;20412;-68
2022/05/14 01:57:40;;;;;;;14.00;12.00;;;;;;;;;;4993239;28;20050;-67
2022/05/14 02:00:10;;;;;;;18.17;12.00;;;;;;;;;;4993805;28;20337;-67
2022/05/14 02:02:38;;;;;;;16.37;11.83;;;;;;;;;;4993466;28;20129;-67
2022/05/14 02:05:06;;;;;;;14.00;11.48;;;;;;;;;;4993343;28;20280;-67
2022/05/14 02:07:33;;;;;;;14.88;11.50;;;;;;;;;;4994049;28;20122;-68
2022/05/14 02:09:59;;;;;;;17.45;12.65;;;;;;;;;;4992959;28;20042;-66
2022/05/14 02:12:26;;;;;;;15.43;12.93;;;;;;;;;;4993280;28;20050;-67
2022/05/14 02:14:53;;;;;;;15.52;12.25;;;;;;;;;;4992239;28;20161;-66
2022/05/14 02:17:20;;;;;;;14.57;11.35;;;;;;;;;;4993352;28;20435;-67
2022/05/14 02:19:49;;;;;;;16.52;11.90;;;;;;;;;;4993256;28;20042;-67
2022/05/14 02:22:16;;;;;;;14.85;12.13;;;;;;;;;;4993534;28;20133;-66
2022/05/14 02:24:43;;;;;;;16.80;11.73;;;;;;;;;;4992726;28;20455;-67
2022/05/14 02:27:10;;;;;;;16.42;12.00;;;;;;;;;;4993219;28;20046;-66
2022/05/14 02:29:54;;;;;;;17.73;11.48;;;;;;;;;;4993240;28;20133;-67
2022/05/14 02:32:23;;;;;;;14.23;11.93;;;;;;;;;;4993249;28;20097;-67
2022/05/14 02:34:52;;;;;;;15.30;11.50;;;;;;;;;;4992781;28;20050;-66
2022/05/14 02:37:21;;;;;;;18.42;12.90;;;;;;;;;;4993116;28;20042;-66
2022/05/14 02:39:48;;;;;;;17.10;12.90;;;;;;;;;;4992945;28;20077;-68
2022/05/14 02:42:15;;;;;;;15.30;11.90;;;;;;;;;;4993271;28;20253;-67
2022/05/14 02:44:42;;;;;;;14.43;12.10;;;;;;;;;;4992824;28;20046;-67
2022/05/14 02:47:10;;;;;;;17.25;12.80;;;;;;;;;;4993252;28;20051;-67
2022/05/14 02:49:37;;;;;;;15.13;11.02;;;;;;;;;;4993113;28;20047;-67
2022/05/14 02:52:06;;;;;;;14.43;11.40;;;;;;;;;;4992738;28;20050;-67
2022/05/14 02:54:33;;;;;;;15.52;12.15;;;;;;;;;;4993070;28;20054;-67
2022/05/14 02:57:00;;;;;;;15.82;12.13;;;;;;;;;;4993356;28;20089;-67
2022/05/14 02:59:27;;;;;;;17.55;11.98;;;;;;;;;;4992726;28;20047;-68
2022/05/14 03:01:54;;;;;;;14.98;11.85;;;;;;;;;;4993135;28;20046;-65
2022/05/14 03:04:25;;;;;;;14.77;11.55;;;;;;;;;;4993235;28;20548;-67
2022/05/14 03:06:51;;;;;;;;;;;;;;;;;;4993700;28;20060;-68
2022/05/14 03:09:20;;;;;;;16.45;11.32;;;;;;;;;;4993021;28;19921;-67
2022/05/14 03:11:47;;;;;;;16.77;11.25;;;;;;;;;;4993314;28;20047;-67
2022/05/14 03:14:15;;;;;;;16.48;11.60;;;;;;;;;;4992747;28;20047;-67
2022/05/14 03:16:42;;;;;;;14.10;11.50;;;;;;;;;;4993152;28;20384;-67
2022/05/14 03:19:09;;;;;;;16.73;12.57;;;;;;;;;;4992995;28;20050;-67
2022/05/14 03:21:37;;;;;;;14.02;11.52;;;;;;;;;;4992515;28;20492;-68
2022/05/14 03:24:04;;;;;;;15.13;12.63;;;;;;;;;;4992344;28;20046;-67
2022/05/14 03:26:33;;;;;;;15.93;12.65;;;;;;;;;;4995420;28;20058;-67
2022/05/14 03:28:59;;;;;;;18.10;12.70;;;;;;;;;;4996419;28;20046;-67
2022/05/14 03:31:26;;;;;;;17.58;12.00;;;;;;;;;;4995943;28;20050;-68
2022/05/14 03:33:53;;;;;;;17.27;12.50;;;;;;;;;;4996009;28;20050;-67
2022/05/14 03:36:20;;;;;;;17.05;12.70;;;;;;;;;;4995670;28;20053;-67
2022/05/14 03:38:47;;;;;;;17.75;13.13;;;;;;;;;;4995776;28;20058;-66
2022/05/14 03:41:16;;;;;;;14.48;12.65;;;;;;;;;;4995487;28;20523;-68
2022/05/14 03:43:45;;;;;;;14.48;11.75;;;;;;;;;;4995934;28;20054;-67
2022/05/14 03:46:12;;;;;;;15.70;12.30;;;;;;;;;;4995644;28;20050;-67
2022/05/14 03:48:39;;;;;;;15.65;12.60;;;;;;;;;;4995719;28;20046;-67
2022/05/14 03:51:06;;;;;;;17.17;12.43;;;;;;;;;;4995482;28;20046;-68
2022/05/14 03:53:34;;;;;;;16.65;13.15;;;;;;;;;;4995385;28;20061;-67
2022/05/14 03:56:01;;;;;;;17.98;13.13;;;;;;;;;;4995367;28;20424;-67
2022/05/14 03:58:27;;;;;;;14.48;11.50;;;;;;;;;;4995671;28;20137;-67
2022/05/14 04:00:56;;;;;;;16.90;13.25;;;;;;;;;;4995367;28;20057;-67
2022/05/14 04:03:23;;;;;;;18.15;12.48;;;;;;;;;;4995577;28;20066;-67
2022/05/14 04:05:50;;;;;;;17.55;12.90;;;;;;;;;;4994945;28;20060;-68
2022/05/14 04:08:18;;;;;;;15.48;12.30;;;;;;;;;;4995319;28;20062;-68
2022/05/14 04:10:45;;;;;;;16.52;12.52;;;;;;;;;;4994900;28;20046;-67
2022/05/14 04:13:13;;;;;;;18.20;13.45;;;;;;;;;;4995027;28;20070;-67
2022/05/14 04:15:40;;;;;;;17.00;12.63;;;;;;;;;;4994752;28;20051;-66
2022/05/14 04:18:09;;;;;;;16.15;12.75;;;;;;;;;;4995110;28;20050;-69
2022/05/14 04:20:36;;;;;;;18.55;13.07;;;;;;;;;;4995014;28;20046;-70
2022/05/14 04:23:03;;;;;;;16.50;13.32;;;;;;;;;;4995292;28;20058;-69
2022/05/14 04:25:30;;;;;;;19.00;13.95;;;;;;;;;;4995052;28;20042;-69
2022/05/14 04:27:57;;;;;;;17.70;13.65;;;;;;;;;;4994876;28;20061;-69
2022/05/14 04:30:24;;;;;;;18.90;13.90;;;;;;;;;;4994581;28;20061;-69
2022/05/14 04:32:51;;;;;;;18.15;13.13;;;;;;;;;;4995100;28;20411;-70
2022/05/14 04:35:21;;;;;;;17.60;14.07;;;;;;;;;;4994710;28;20047;-70
2022/05/14 04:37:48;;;;;;;17.65;13.20;;;;;;;;;;4994094;28;20069;-69
2022/05/14 04:40:15;;;;;;;18.40;13.75;;;;;;;;;;4994484;28;20046;-68
2022/05/14 04:42:44;;;;;;;18.33;14.63;;;;;;;;;;4994611;28;20126;-69
2022/05/14 04:45:11;;;;;;;16.15;12.70;;;;;;;;;;4994199;28;20057;-69
2022/05/14 04:47:41;;;;;;;16.77;13.55;;;;;;;;;;4994477;28;20050;-71
2022/05/14 04:50:09;;;;;;;18.40;13.50;;;;;;;;;;4994576;28;20479;-70
2022/05/14 04:52:37;;;;;;;16.00;13.15;;;;;;;;;;4994554;28;20676;-70
2022/05/14 04:55:05;;;;;;;16.75;12.55;;;;;;;;;;4994829;28;20096;-69
2022/05/14 04:57:32;;;;;;;15.52;12.55;;;;;;;;;;4994758;28;20050;-70
2022/05/14 04:59:59;;;;;;;16.42;12.50;;;;;;;;;;4994602;28;20073;-70
2022/05/14 05:05:13;;;;;;;16.60;12.93;;;;;;;;;;4994302;28;20427;-69
2022/05/14 05:07:42;;;;;;;14.80;12.10;;;;;;;;;;4993862;28;20073;-69
2022/05/14 05:10:09;;;;;;;16.42;12.63;;;;;;;;;;4994453;28;20495;-69
2022/05/14 05:12:36;;;;;;;15.90;12.45;;;;;;;;;;4994386;28;20050;-69
2022/05/14 05:15:04;;;;;;;17.15;12.30;;;;;;;;;;4993858;28;20042;-69
2022/05/14 05:17:31;;;;;;;17.98;12.52;;;;;;;;;;4993936;28;20052;-70
2022/05/14 05:19:58;;;;;;;16.30;12.80;;;;;;;;;;4993977;28;20054;-69
2022/05/14 05:22:24;;;;;;;13.57;11.35;;;;;;;;;;4993935;28;20466;-71
2022/05/14 05:24:53;;;;;;;16.08;11.88;;;;;;;;;;4993742;28;20514;-68
2022/05/14 05:27:20;;;;;;;18.17;12.88;;;;;;;;;;4993865;28;20059;-69
2022/05/14 05:29:47;;;;;;;16.67;12.40;;;;;;;;;;4993855;28;20054;-69
2022/05/14 05:32:14;;;;;;;18.90;13.45;;;;;;;;;;4994237;28;20062;-71
2022/05/14 05:34:41;;;;;;;17.00;13.43;;;;;;;;;;4993549;28;20065;-70
2022/05/14 05:37:08;;;;;;;19.95;14.90;;;;;;;;;;4994159;28;20050;-70
2022/05/14 05:39:35;;;;;;;18.50;13.93;;;;;;;;;;4994104;28;20046;-70
2022/05/14 05:42:04;;;;;;;18.30;14.95;;;;;;;;;;4993333;28;20046;-70
2022/05/14 05:44:31;;;;;;;19.25;14.07;;;;;;;;;;4993762;28;20050;-71
2022/05/14 05:46:58;;;;;;;18.10;15.25;;;;;;;;;;4994497;28;20051;-70
2022/05/14 05:49:25;;;;;;;17.77;14.80;;;;;;;;;;4993531;28;20055;-69
2022/05/14 05:51:52;;;;;;;18.50;15.13;;;;;;;;;;5017873;23;20041;-66
2022/05/14 05:57:05;;;;;;;19.17;15.77;;;;;;;;;;5032712;28;20182;-66
2022/05/14 05:59:33;;;;;;;20.75;16.83;;;;;;;;;;5032496;28;20061;-67
2022/05/14 06:02:00;;;;;;;19.42;15.65;;;;;;;;;;5032606;28;20541;-67
2022/05/14 06:04:27;;;;;;;19.58;15.68;;;;;;;;;;5032360;28;20054;-66
2022/05/14 06:06:54;;;;;;;21.48;15.90;;;;;;;;;;5032320;28;20075;-68
2022/05/14 06:09:22;;;;;;;18.35;15.55;;;;;;;;;;5032188;28;20046;-67
2022/05/14 06:11:50;;;;;;;23.20;17.20;;;;;;;;;;5032175;28;20053;-67
2022/05/14 06:14:19;;;;;;;18.25;14.85;;;;;;;;;;5032318;28;20413;-67
2022/05/14 06:16:46;;;;;;;18.55;15.15;;;;;;;;;;5032154;28;20077;-68
2022/05/14 06:19:14;;;;;;;20.08;15.25;;;;;;;;;;5032482;28;20045;-67
2022/05/14 06:21:41;;;;;;;17.30;13.18;;;;;;;;;;5031599;28;20490;-67
2022/05/14 06:24:09;;;;;;;17.52;12.48;;;;;;;;;;5032076;28;20139;-67
2022/05/14 06:26:37;;;;;;;13.77;10.98;;;;;;;;;;5032086;28;20049;-66
2022/05/14 06:29:04;;;;;;;15.85;10.60;;;;;;;;;;5032061;28;20126;-67
2022/05/14 06:31:33;;;;;;;13.10;10.43;;;;;;;;;;5031861;28;20060;-68
2022/05/14 06:34:00;;;;;;;11.60;10.27;;;;;;;;;;5032014;28;20049;-65
2022/05/14 06:36:27;;;;;;;15.55;10.57;;;;;;;;;;5032010;28;20103;-66
2022/05/14 06:38:54;;;;;;;14.57;9.77;;;;;;;;;;5032086;28;20413;-66
2022/05/14 06:41:21;;;;;;;14.25;10.02;;;;;;;;;;5031950;28;20057;-66
2022/05/14 06:43:48;;;;;;;12.27;9.60;;;;;;;;;;5032215;28;20049;-67
2022/05/14 06:46:15;;;;;;;12.05;9.45;;;;;;;;;;5032276;28;20054;-67
2022/05/14 06:48:44;;;;;;;14.70;10.50;;;;;;;;;;5031825;28;20071;-67
2022/05/14 06:51:15;;;;;;;14.93;10.40;;;;;;;;;;5031901;28;20049;-66
2022/05/14 06:53:43;;;;;;;15.73;11.13;;;;;;;;;;5031841;28;20068;-67
2022/05/14 06:56:13;;;;;;;15.10;10.82;;;;;;;;;;5032102;28;20414;-67
2022/05/14 06:58:41;;;;;;;14.43;11.27;;;;;;;;;;5031976;28;20049;-67
2022/05/14 07:01:09;;;;;;;13.20;11.02;;;;;;;;;;5034142;28;20046;-67
2022/05/14 07:06:40;;;;;;;15.35;11.23;;;;;;;;;;5037403;28;20064;-66
2022/05/14 07:09:12;;;;;;;14.48;10.45;;;;;;;;;;5037919;28;20088;-66
2022/05/14 07:11:41;;;;;;;20.33;13.60;;;;;;;;;;5038432;28;20049;-69
2022/05/14 07:14:10;;;;;;;18.48;10.93;;;;;;;;;;5038225;28;20140;-67
2022/05/14 07:16:37;;;;;;;12.98;9.80;;;;;;;;;;5037786;28;20050;-68
2022/05/14 07:19:06;;;;;;;15.50;10.30;;;;;;;;;;5037124;28;20045;-67
2022/05/14 07:21:37;;;;;;;16.98;11.93;;;;;;;;;;5037083;28;20054;-68
2022/05/14 07:24:06;;;;;;;11.90;9.63;;;;;;;;;;5037259;28;20095;-67
2022/05/14 07:26:34;;;;;;;12.95;10.20;;;;;;;;;;5037722;28;20049;-67
2022/05/14 07:29:01;;;;;;;13.73;8.70;;;;;;;;;;5037281;28;20057;-67
2022/05/14 07:31:29;;;;;;;13.85;8.10;;;;;;;;;;5037416;28;20046;-66
2022/05/14 07:33:55;;;;;;;12.35;7.38;;;;;;;;;;5037185;28;20057;-67
2022/05/14 07:36:26;;;;;;;10.32;7.03;;;;;;;;;;5035207;28;20053;-66
2022/05/14 07:38:58;;;;;;;11.73;7.07;;;;;;;;;;5034938;28;20053;-66
2022/05/14 07:41:26;;;;;;;8.52;6.25;;;;;;;;;;5035038;28;20061;-67
2022/05/14 07:43:56;;;;;;;10.32;6.60;;;;;;;;;;5035082;28;20046;-66
2022/05/14 07:46:28;;;;;;;7.45;5.00;;;;;;;;;;5035152;28;20053;-66
2022/05/14 07:48:56;;;;;;;7.30;4.25;;;;;;;;;;5034866;28;20132;-66
2022/05/14 07:51:23;;;;;;;10.15;7.47;;;;;;;;;;5034673;28;20056;-67
2022/05/14 07:53:50;;;;;;;10.88;6.15;;;;;;;;;;5034854;28;20042;-68
2022/05/14 07:56:19;;;;;;;9.50;5.50;;;;;;;;;;5034867;28;20053;-67
2022/05/14 07:58:47;;;;;;;12.25;7.47;;;;;;;;;;5034782;28;20092;-68
2022/05/14 08:01:15;;;;;;;9.20;4.57;;;;;;;;;;5034599;28;20053;-67
2022/05/14 08:03:43;;;;;;;6.55;4.78;;;;;;;;;;5034723;28;20137;-68
2022/05/14 08:06:11;;;;;;;9.70;6.22;;;;;;;;;;5034740;28;20050;-67
2022/05/14 08:08:38;;;;;;;10.07;5.72;;;;;;;;;;5034681;28;20445;-67
2022/05/14 08:11:05;;;;;;;8.10;4.53;;;;;;;;;;5034477;28;20588;-67
2022/05/14 08:13:34;;;;;;;7.75;4.88;;;;;;;;;;5034371;28;20060;-67
2022/05/14 08:16:02;;;;;;;10.15;4.40;;;;;;;;;;5034359;28;20490;-68
2022/05/14 08:18:29;;;;;;;7.90;4.70;;;;;;;;;;5034132;28;20049;-67
2022/05/14 08:20:56;;;;;;;8.52;4.93;;;;;;;;;;5034185;28;20049;-67
2022/05/14 08:26:09;;;;;;;10.13;5.88;;;;;;;;;;5034173;28;20532;-68
2022/05/14 08:28:37;;;;;;;7.85;5.60;;;;;;;;;;5034121;28;20473;-68
2022/05/14 08:31:04;;;;;;;16.25;12.07;;;;;;;;;;5033950;28;20049;-67
2022/05/14 08:33:31;;;;;;;8.57;5.70;;;;;;;;;;5034388;28;20506;-68
2022/05/14 08:35:59;;;;;;;8.10;5.25;;;;;;;;;;5033795;28;20057;-67
2022/05/14 08:38:25;;;;;;;9.00;5.32;;;;;;;;;;5033902;28;20233;-67
2022/05/14 08:40:56;;;;;;;6.60;4.85;;;;;;;;;;5034093;28;20529;-68
2022/05/14 08:43:29;;;;;;;8.85;5.10;;;;;;;;;;5033825;28;20054;-68
2022/05/14 08:45:57;;;;;;;7.03;4.45;;;;;;;;;;5033737;28;20068;-67
2022/05/14 08:48:27;;;;;;;10.00;4.35;;;;;;;;;;5033737;28;20067;-68
2022/05/14 08:50:58;;;;;;;;;;;;;;;;;;5034056;28;20049;-68
2022/05/14 08:53:29;;;;;;;6.53;4.43;;;;;;;;;;5033379;28;19975;-67
2022/05/14 08:56:14;;;;;;;10.65;4.90;;;;;;;;;;5033466;28;20053;-68
2022/05/14 08:58:57;;;;;;;8.98;4.20;;;;;;;;;;5033820;28;20160;-66
2022/05/14 09:01:29;;;;;;;6.97;3.70;;;;;;;;;;5033310;28;20053;-67
2022/05/14 09:03:56;;;;;;;7.63;4.20;;;;;;;;;;5033283;28;20061;-66
2022/05/14 09:06:24;;;;;;;8.75;4.43;;;;;;;;;;5033324;28;20050;-67
2022/05/14 09:08:51;;;;;;;10.45;4.88;;;;;;;;;;5033345;28;20473;-66
2022/05/14 09:11:21;;;;;;;9.90;4.10;;;;;;;;;;5033169;28;20510;-66
2022/05/14 09:13:51;;;;;;;7.82;4.68;;;;;;;;;;5033090;28;20049;-66
2022/05/14 09:16:25;;;;;;;8.38;4.40;;;;;;;;;;5032939;28;20194;-67
2022/05/14 09:18:54;;;;;;;7.28;4.40;;;;;;;;;;5033401;28;20084;-66
2022/05/14 09:21:23;;;;;;;8.70;4.50;;;;;;;;;;5033225;28;20045;-66
2022/05/14 09:23:54;;;;;;;8.13;4.90;;;;;;;;;;5032460;28;20049;-67
2022/05/14 09:26:27;;;;;;;7.55;4.45;;;;;;;;;;5033032;28;20140;-67
2022/05/14 09:28:56;;;;;;;8.55;5.13;;;;;;;;;;5033215;28;20104;-66
2022/05/14 09:31:26;;;;;;;11.07;4.75;;;;;;;;;;5032811;28;20045;-67
2022/05/14 09:34:04;;;;;;;8.65;4.82;;;;;;;;;;5032630;28;20121;-66
2022/05/14 09:36:31;;;;;;;9.20;4.93;;;;;;;;;;5032883;28;20143;-67
2022/05/14 09:39:06;;;;;;;10.13;5.03;;;;;;;;;;5032754;28;20057;-67
2022/05/14 09:41:41;;;;;;;8.85;5.57;;;;;;;;;;5032478;28;20075;-67
2022/05/14 09:44:14;;;;;;;12.23;7.47;;;;;;;;;;5032557;28;20194;-66
2022/05/14 09:46:41;;;;;;;10.07;5.47;;;;;;;;;;5032869;28;20045;-66
2022/05/14 09:49:18;;;;;;;8.02;5.32;;;;;;;;;;5032539;28;20112;-66
2022/05/14 09:51:51;;;;;;;7.65;5.50;;;;;;;;;;5032367;28;20046;-67
2022/05/14 09:54:23;;;;;;;9.48;5.28;;;;;;;;;;5032504;28;20103;-67
2022/05/14 09:57:29;;;;;;;12.60;5.60;;;;;;;;;;5032884;28;20479;-66
2022/05/14 10:00:09;;;;;;;10.18;5.82;;;;;;;;;;5032446;28;20049;-67
2022/05/14 10:03:12;;;;;;;11.18;5.00;;;;;;;;;;5032447;28;20119;-66
2022/05/14 10:05:59;;;;;;;12.68;6.55;;;;;;;;;;5030483;28;20136;-67
2022/05/14 10:08:50;;;;;;;8.65;5.03;;;;;;;;;;5032450;28;20502;-66
2022/05/14 10:11:23;;;;;;;10.65;5.00;;;;;;;;;;5032179;28;20053;-67
2022/05/14 10:14:01;;;;;;;10.88;4.80;;;;;;;;;;5032295;28;20065;-67
2022/05/14 10:16:35;;;;;;;8.48;4.57;;;;;;;;;;5032254;28;20041;-68
2022/05/14 10:19:15;;;;;;;9.98;5.20;;;;;;;;;;5032402;28;20045;-68
2022/05/14 10:21:51;;;;;;;9.65;4.47;;;;;;;;;;5032389;28;20416;-67
2022/05/14 10:27:43;;;;;;;8.70;4.72;;;;;;;;;;5032273;28;20048;-68
2022/05/14 10:30:16;;;;;;;8.02;5.32;;;;;;;;;;5031874;28;20057;-67
2022/05/14 10:32:44;;;;;;;10.02;4.88;;;;;;;;;;5032458;28;20057;-68
2022/05/14 10:35:18;;;;;;;8.60;5.00;;;;;;;;;;5032910;28;20046;-67
2022/05/14 10:37:51;;;;;;;9.52;4.68;;;;;;;;;;5036555;28;20058;-66
2022/05/14 10:40:24;;;;;;;7.57;5.60;;;;;;;;;;5036329;28;20049;-66
2022/05/14 10:43:27;;;;;;;12.48;7.63;;;;;;;;;;5036295;28;20054;-67
2022/05/14 10:45:56;;;;;;;8.15;4.97;;;;;;;;;;5011360;28;20080;-67
2022/05/14 10:48:37;;;;;;;10.27;4.95;;;;;;;;;;5035971;28;20077;-67
2022/05/14 10:51:06;;;;;;;6.70;5.07;;;;;;;;;;5035967;28;20464;-66
2022/05/14 10:53:39;;;;;;;9.45;4.95;;;;;;;;;;5036014;28;20045;-67
2022/05/14 10:56:12;;;;;;;8.07;5.35;;;;;;;;;;5035592;28;20120;-68
2022/05/14 10:58:45;;;;;;;9.05;4.70;;;;;;;;;;5035691;28;20060;-67
2022/05/14 11:01:29;;;;;;;10.20;5.28;;;;;;;;;;5035694;28;20499;-66
2022/05/14 11:03:57;;;;;;;8.80;4.68;;;;;;;;;;5035781;28;20054;-67
2022/05/14 11:06:30;;;;;;;7.53;4.93;;;;;;;;;;5035759;28;20088;-68
2022/05/14 11:08:59;;;;;;;8.05;4.82;;;;;;;;;;5035728;28;20505;-68
2022/05/14 11:11:29;;;;;;;11.57;4.80;;;;;;;;;;5035427;28;20052;-68
2022/05/14 11:14:02;;;;;;;10.38;5.47;;;;;;;;;;5035565;28;20061;-68
2022/05/14 11:16:44;;;;;;;15.13;9.07;;;;;;;;;;5035633;28;20451;-68
2022/05/14 11:19:12;;;;;;;9.02;4.38;;;;;;;;;;5035525;28;20049;-67
2022/05/14 11:21:41;;;;;;;8.75;4.97;;;;;;;;;;5035438;28;20485;-67
2022/05/14 11:24:12;;;;;;;9.37;5.87;;;;;;;;;;5035668;28;20478;-67
2022/05/14 11:26:51;;;;;;;10.88;5.43;;;;;;;;;;5035175;28;20045;-66
2022/05/14 11:29:20;;;;;;;15.00;5.60;;;;;;;;;;5035432;28;20211;-68
2022/05/14 11:31:55;;;;;;;9.77;4.80;;;;;;;;;;5035604;28;20486;-67
2022/05/14 11:34:25;;;;;;;9.90;5.30;;;;;;;;;;5035688;28;20049;-67
2022/05/14 11:36:56;;;;;;;6.68;4.28;;;;;;;;;;5035020;28;20099;-68
2022/05/14 11:39:28;;;;;;;7.38;4.85;;;;;;;;;;5035173;28;20057;-68
2022/05/14 11:42:10;;;;;;;9.05;5.57;;;;;;;;;;5035286;28;20140;-67
2022/05/14 11:44:45;;;;;;;12.52;7.57;;;;;;;;;;5035232;28;20156;-68
2022/05/14 11:47:39;;;;;;;10.95;5.07;;;;;;;;;;5034841;28;20060;-67
2022/05/14 11:50:07;;;;;;;29.15;13.45;;;;;;;;;;5035023;28;20064;-67
2022/05/14 11:52:41;;;;;;;10.45;5.70;;;;;;;;;;5047254;22;20056;-67
2022/05/14 11:55:14;;;;;;;12.38;6.10;;;;;;;;;;5035721;28;20406;-66
2022/05/14 11:57:45;;;;;;;14.13;9.38;;;;;;;;;;5036073;28;20467;-66
2022/05/14 12:00:16;;;;;;;11.70;6.05;;;;;;;;;;5035428;28;20413;-65
2022/05/14 12:02:51;;;;;;;10.32;5.07;;;;;;;;;;5035236;28;20504;-67
2022/05/14 12:05:21;;;;;;;7.35;4.63;;;;;;;;;;5034682;28;20046;-67
2022/05/14 12:07:55;;;;;;;;;;;;;;;;;;5035310;28;20050;-67
2022/05/14 12:10:33;;;;;;;13.30;5.03;;;;;;;;;;5034824;28;20358;-67
2022/05/14 12:13:09;;;;;;;9.50;5.07;;;;;;;;;;5034619;28;20046;-66
2022/05/14 12:15:37;;;;;;;12.38;6.93;;;;;;;;;;5034689;28;20442;-66
2022/05/14 12:18:04;;;;;;;11.32;5.93;;;;;;;;;;5034554;28;20056;-66
2022/05/14 12:20:33;;;;;;;8.98;4.78;;;;;;;;;;5034457;28;20141;-67
2022/05/14 12:23:03;;;;;;;10.35;4.60;;;;;;;;;;5034327;28;20053;-67
2022/05/14 12:25:41;;;;;;;7.32;4.07;;;;;;;;;;5034161;28;20068;-67
2022/05/14 12:28:19;;;;;;;8.43;4.50;;;;;;;;;;5034493;28;20049;-66
2022/05/14 12:33:37;;;;;;;9.30;4.40;;;;;;;;;;5034194;28;20240;-67
2022/05/14 12:36:06;;;;;;;6.65;4.03;;;;;;;;;;5034021;28;20144;-67
2022/05/14 12:38:36;;;;;;;8.32;5.07;;;;;;;;;;5034333;28;20509;-71
2022/05/14 12:41:09;;;;;;;8.40;4.40;;;;;;;;;;5034760;28;20056;-70
2022/05/14 12:43:36;;;;;;;7.50;3.60;;;;;;;;;;5034234;28;20459;-67
2022/05/14 12:46:07;;;;;;;13.65;4.30;;;;;;;;;;5033325;28;20490;-68
2022/05/14 12:48:43;;;;;;;7.13;3.97;;;;;;;;;;5034100;28;20060;-66
2022/05/14 12:51:11;;;;;;;7.63;4.68;;;;;;;;;;5034216;28;20399;-66
2022/05/14 12:53:41;;;;;;;6.60;4.53;;;;;;;;;;5034131;28;20053;-68
2022/05/14 12:56:09;;;;;;;;;;;;;;;;;;5034581;28;20099;-67
2022/05/14 12:58:38;;;;;;;6.50;4.28;;;;;;;;;;5033667;28;20043;-67
2022/05/14 13:01:06;;;;;;;8.80;4.13;;;;;;;;;;5033944;28;20052;-66
2022/05/14 13:03:39;;;;;;;6.63;4.00;;;;;;;;;;5033917;28;20383;-66
2022/05/14 13:06:09;;;;;;;8.10;4.30;;;;;;;;;;5034157;28;20474;-67
2022/05/14 13:08:43;;;;;;;8.23;4.35;;;;;;;;;;5034051;28;20056;-67
2022/05/14 13:11:16;;;;;;;7.93;3.85;;;;;;;;;;5033627;28;20050;-67
2022/05/14 13:13:47;;;;;;;8.38;4.40;;;;;;;;;;5033572;28;20052;-67
2022/05/14 13:16:17;;;;;;;7.95;4.32;;;;;;;;;;5033539;28;20059;-67
2022/05/14 13:18:46;;;;;;;8.57;4.43;;;;;;;;;;5033764;28;20046;-67
2022/05/14 13:21:20;;;;;;;7.13;4.60;;;;;;;;;;5033584;28;20046;-67
2022/05/14 13:23:57;;;;;;;9.13;4.20;;;;;;;;;;5033663;28;20056;-67
2022/05/14 13:26:31;;;;;;;9.32;5.85;;;;;;;;;;5033404;28;20060;-67
2022/05/14 13:29:15;;;;;;;6.00;4.43;;;;;;;;;;5033442;28;20046;-67
2022/05/14 13:31:42;;;;;;;8.00;4.55;;;;;;;;;;5033352;28;20475;-68
2022/05/14 13:37:11;;;;;;;9.13;3.97;;;;;;;;;;5033432;28;20056;-67
2022/05/14 13:39:46;;;;;;;7.47;4.18;;;;;;;;;;5033988;28;20049;-68
2022/05/14 13:42:22;;;;;;;7.80;3.80;;;;;;;;;;5034076;28;20088;-67
2022/05/14 13:44:51;;;;;;;7.40;4.13;;;;;;;;;;5034240;28;20053;-67
2022/05/14 13:47:22;;;;;;;9.77;4.50;;;;;;;;;;5032758;28;20052;-67
2022/05/14 13:49:54;;;;;;;9.43;4.53;;;;;;;;;;5033405;28;20046;-66
2022/05/14 13:52:28;;;;;;;9.57;4.97;;;;;;;;;;5032945;28;20133;-67
2022/05/14 13:55:05;;;;;;;7.32;4.25;;;;;;;;;;5033105;28;20128;-67
2022/05/14 13:57:35;;;;;;;6.15;3.97;;;;;;;;;;5033665;28;20052;-67
2022/05/14 14:00:08;;;;;;;5.82;4.05;;;;;;;;;;5032965;28;20163;-67
2022/05/14 14:02:35;;;;;;;6.82;4.07;;;;;;;;;;5032496;28;20050;-66
2022/05/14 14:05:08;;;;;;;7.80;4.30;;;;;;;;;;5033248;28;20081;-67
2022/05/14 14:07:40;;;;;;;6.93;3.70;;;;;;;;;;5033178;28;20136;-67
2022/05/14 14:10:14;;;;;;;12.55;7.53;;;;;;;;;;5032986;28;20423;-68
2022/05/14 14:12:42;;;;;;;8.98;4.50;;;;;;;;;;5032503;28;20049;-67
2022/05/14 14:15:13;;;;;;;6.32;3.70;;;;;;;;;;5032804;28;20041;-67
2022/05/14 14:17:39;;;;;;;6.43;4.35;;;;;;;;;;5032957;28;20060;-67
2022/05/14 14:20:08;;;;;;;9.85;5.72;;;;;;;;;;5032683;28;20057;-67
2022/05/14 14:22:35;;;;;;;6.63;3.78;;;;;;;;;;5032899;28;20522;-67
2022/05/14 14:25:03;;;;;;;7.32;4.22;;;;;;;;;;5032831;28;20521;-67
2022/05/14 14:27:30;;;;;;;6.30;3.85;;;;;;;;;;5032922;28;20127;-67
2022/05/14 14:29:58;;;;;;;9.15;4.38;;;;;;;;;;5033046;28;20061;-68
2022/05/14 14:32:27;;;;;;;6.75;3.92;;;;;;;;;;5032623;28;20136;-66
2022/05/14 14:34:54;;;;;;;6.50;4.07;;;;;;;;;;5032717;28;20053;-67
2022/05/14 14:37:21;;;;;;;5.07;3.58;;;;;;;;;;5032700;28;20049;-67
2022/05/14 14:39:50;;;;;;;5.50;3.95;;;;;;;;;;5032910;28;20068;-67
2022/05/14 14:42:18;;;;;;;7.13;3.55;;;;;;;;;;5032851;28;20485;-67
2022/05/14 14:44:45;;;;;;;7.07;4.35;;;;;;;;;;5032318;28;20415;-66
2022/05/14 14:47:14;;;;;;;7.47;4.43;;;;;;;;;;5033159;28;20119;-66
2022/05/14 14:49:41;;;;;;;7.22;4.05;;;;;;;;;;5033247;28;20128;-66
2022/05/14 14:52:08;;;;;;;7.25;3.63;;;;;;;;;;5032847;28;20072;-67
2022/05/14 14:54:35;;;;;;;7.05;4.18;;;;;;;;;;5032490;28;20092;-67
2022/05/14 14:57:03;;;;;;;7.28;3.78;;;;;;;;;;5032403;28;20046;-68
2022/05/14 14:59:30;;;;;;;10.30;5.15;;;;;;;;;;5032831;28;20282;-67
2022/05/14 15:02:01;;;;;;;5.65;3.70;;;;;;;;;;5032332;28;20041;-68
2022/05/14 15:04:37;;;;;;;6.53;4.28;;;;;;;;;;5032661;28;20479;-68
2022/05/14 15:07:05;;;;;;;5.95;3.85;;;;;;;;;;5032792;28;20057;-68